Contact Us:
Email: info@sawbill.com
Phone: (218)663-7150
Fax: (218)663-7980
Mail: 4620 Sawbill Trail
Box 2129
Tofte, MN 55615


Powered by
Movable Type 3.15
 
Sawbill Weather History Archives: September 2006
Current Sawbill Weather History | « August 2006 | October 2006 »


Date

High
Temperature

Low
Temperature

Barometric
Pressure

Relative
Humidity 7AM

9 AM
Temperature

Moisture

Snow

9/30/06 51 33 29.97 79% 34 .03"
9/29/06 47 39 29.59 86% 47 .12"
9/28/06 49 35 29.76 83% 39 0
9/27/06 51 37 30.00 83% 38 .11"
9/26/06 57 43 29.78 80% 43 .14"
9/25/06 60 42 29.83 68% 48 0
9/24/06 58 41 29.76 85% 47 .12"
9/23/06 55 40 29.88 81% 41 0
9/22/06 54 50 29.71 85% 50 .30"
9/21/06 63 38 29.79 87% 51 .11"
9/20/06 59 38 29.94 80% 38 0
9/19/06 48 39 29.99 68% 42 .05"
9/18/06 53 39 29.75 84% 40 .31"
9/17/06 74 47 29.55 78% 48 .05"
9/16/06 65 59 29.55 89% 65 .11"
9/15/06 76 50 29.92 87% 59 0
9/14/06 75 45 30.05 79% 50 0
9/13/06 79 43 29.99 80% 45 0
9/12/06 72 39 30.01 81% 43 0
9/11/06 69 41 30.22 84% 44 0
9/10/06 64 38 30.34 78% 41 0
9/9/06 65 37 30.37 79% 41 0
9/8/06 59 37 30.27 76% 39 0
9/7/06 82 43 30.06 76% 44 .29"
9/6/06 74 50 29.91 90% 56 .16"
9/5/06 85 48 30.18 83% 53 0
9/4/06 88 55 30.15 78% 57 0
9/3/06 80 50 30.19 87% 55 0
9/2/06 77 46 30.21 86% 50 0
9/1/06 77 47 30.30 84% 51 0
 


Home I Trip Planning I Rentals and Outfitting I Reservations I Campgrounds I Sawbill Store I Sawbill News I Contact

© 1997 - 2017, Sawbill Canoe Outfitters, Inc. I Privacy Policy